FMNM/MJN METAR and TAF weather

Enter ICAO airport designator
Station Type Date Time Source
FMNM METAR 2024/07/24 12:00 UTC NOAA

FMNM 241200Z 31009KT 280V350 9999 FEW023 31/16 Q1016 NOSIG


Station Type Date Time Source
FMNM Decoded METAR 2024/07/24 12:00 UTC NOAA

Majunga, Madagascar (FMNM) 15-40S 046-21E 18M
Jul 24, 2024 - 08:00 AM EDT / 2024.07.24 1200 UTC
Wind: from the NW (310 degrees) at 10 MPH (9 KT) (direction variable):0
Visibility: greater than 7 mile(s):0
Sky conditions: mostly clear
Temperature: 87 F (31 C)
Dew Point: 60 F (16 C)
Relative Humidity: 40%
Pressure (altimeter): 30.00 in. Hg (1016 hPa)
ob: FMNM 241200Z 31009KT 280V350 9999 FEW023 31/16 Q1016 NOSIG
cycle: 12

Station Type Date Time Source
FMNM TAF 2024/07/24 12:11 UTC NOAA